sensor_id;sensor_type;location;lat;lon;timestamp;temperature;humidity
28530;DHT22;15737;49.760;6.632;2024-01-25T00:00:53;8.90;99.90
28530;DHT22;15737;49.760;6.632;2024-01-25T00:03:19;8.90;99.90
28530;DHT22;15737;49.760;6.632;2024-01-25T00:05:44;8.80;99.90
28530;DHT22;15737;49.760;6.632;2024-01-25T00:08:10;8.90;99.90
28530;DHT22;15737;49.760;6.632;2024-01-25T00:10:35;8.90;99.90
28530;DHT22;15737;49.760;6.632;2024-01-25T00:13:01;8.90;99.90
28530;DHT22;15737;49.760;6.632;2024-01-25T00:15:27;8.80;99.90
28530;DHT22;15737;49.760;6.632;2024-01-25T00:17:52;8.80;99.90
28530;DHT22;15737;49.760;6.632;2024-01-25T00:20:18;8.80;99.90
28530;DHT22;15737;49.760;6.632;2024-01-25T00:22:43;8.80;99.90
28530;DHT22;15737;49.760;6.632;2024-01-25T00:25:09;8.70;99.90
28530;DHT22;15737;49.760;6.632;2024-01-25T00:27:34;8.60;99.90
28530;DHT22;15737;49.760;6.632;2024-01-25T00:30:00;8.60;99.90
28530;DHT22;15737;49.760;6.632;2024-01-25T00:32:25;8.50;99.90
28530;DHT22;15737;49.760;6.632;2024-01-25T00:34:51;8.50;99.90
28530;DHT22;15737;49.760;6.632;2024-01-25T00:37:17;8.50;99.90
28530;DHT22;15737;49.760;6.632;2024-01-25T00:39:43;8.50;99.90
28530;DHT22;15737;49.760;6.632;2024-01-25T00:42:12;8.40;99.90
28530;DHT22;15737;49.760;6.632;2024-01-25T00:44:38;8.30;99.90
28530;DHT22;15737;49.760;6.632;2024-01-25T00:47:04;8.30;99.90
28530;DHT22;15737;49.760;6.632;2024-01-25T00:49:29;8.30;99.90
28530;DHT22;15737;49.760;6.632;2024-01-25T00:51:59;8.30;99.90
28530;DHT22;15737;49.760;6.632;2024-01-25T00:54:27;8.30;99.90
28530;DHT22;15737;49.760;6.632;2024-01-25T00:56:53;8.30;99.90
28530;DHT22;15737;49.760;6.632;2024-01-25T00:59:20;8.20;99.90
28530;DHT22;15737;49.760;6.632;2024-01-25T01:01:49;8.20;99.90
28530;DHT22;15737;49.760;6.632;2024-01-25T01:04:16;8.10;99.90
28530;DHT22;15737;49.760;6.632;2024-01-25T01:06:42;8.10;99.90
28530;DHT22;15737;49.760;6.632;2024-01-25T01:09:08;8.00;99.90
28530;DHT22;15737;49.760;6.632;2024-01-25T01:11:34;8.00;99.90
28530;DHT22;15737;49.760;6.632;2024-01-25T01:13:59;8.00;99.90
28530;DHT22;15737;49.760;6.632;2024-01-25T01:16:25;8.00;99.90
28530;DHT22;15737;49.760;6.632;2024-01-25T01:18:51;7.90;99.90
28530;DHT22;15737;49.760;6.632;2024-01-25T01:21:16;7.90;99.90
28530;DHT22;15737;49.760;6.632;2024-01-25T01:23:42;7.80;99.90
28530;DHT22;15737;49.760;6.632;2024-01-25T01:26:07;7.70;99.90
28530;DHT22;15737;49.760;6.632;2024-01-25T01:31:03;7.70;99.90
28530;DHT22;15737;49.760;6.632;2024-01-25T01:33:30;7.60;99.90
28530;DHT22;15737;49.760;6.632;2024-01-25T01:35:55;7.60;99.90
28530;DHT22;15737;49.760;6.632;2024-01-25T01:38:21;7.50;99.90
28530;DHT22;15737;49.760;6.632;2024-01-25T01:40:46;7.40;99.90
28530;DHT22;15737;49.760;6.632;2024-01-25T01:43:21;7.40;99.90
28530;DHT22;15737;49.760;6.632;2024-01-25T01:45:48;7.40;99.90
28530;DHT22;15737;49.760;6.632;2024-01-25T01:48:15;7.30;99.90
28530;DHT22;15737;49.760;6.632;2024-01-25T01:50:42;7.20;99.90
28530;DHT22;15737;49.760;6.632;2024-01-25T01:53:08;7.20;99.90
28530;DHT22;15737;49.760;6.632;2024-01-25T01:55:33;7.30;99.90
28530;DHT22;15737;49.760;6.632;2024-01-25T01:58:00;7.20;99.90
28530;DHT22;15737;49.760;6.632;2024-01-25T02:00:26;7.10;99.90
28530;DHT22;15737;49.760;6.632;2024-01-25T02:02:52;7.10;99.90
28530;DHT22;15737;49.760;6.632;2024-01-25T02:05:18;7.10;99.90
28530;DHT22;15737;49.760;6.632;2024-01-25T02:07:43;7.20;99.90
28530;DHT22;15737;49.760;6.632;2024-01-25T02:10:09;7.10;99.90
28530;DHT22;15737;49.760;6.632;2024-01-25T02:12:35;7.00;99.90
28530;DHT22;15737;49.760;6.632;2024-01-25T02:15:02;7.00;99.90
28530;DHT22;15737;49.760;6.632;2024-01-25T02:17:28;7.00;99.90
28530;DHT22;15737;49.760;6.632;2024-01-25T02:19:54;7.00;99.90
28530;DHT22;15737;49.760;6.632;2024-01-25T02:22:19;7.00;99.90
28530;DHT22;15737;49.760;6.632;2024-01-25T02:24:45;6.90;99.90
28530;DHT22;15737;49.760;6.632;2024-01-25T02:27:11;6.80;99.90
28530;DHT22;15737;49.760;6.632;2024-01-25T02:29:36;6.70;99.90
28530;DHT22;15737;49.760;6.632;2024-01-25T02:32:02;6.60;99.90
28530;DHT22;15737;49.760;6.632;2024-01-25T02:34:28;6.50;99.90
28530;DHT22;15737;49.760;6.632;2024-01-25T02:36:53;6.40;99.90
28530;DHT22;15737;49.760;6.632;2024-01-25T02:39:19;6.30;99.90
28530;DHT22;15737;49.760;6.632;2024-01-25T02:41:44;6.30;99.90
28530;DHT22;15737;49.760;6.632;2024-01-25T02:44:11;6.30;99.90
28530;DHT22;15737;49.760;6.632;2024-01-25T02:46:37;6.30;99.90
28530;DHT22;15737;49.760;6.632;2024-01-25T02:49:03;6.20;99.90
28530;DHT22;15737;49.760;6.632;2024-01-25T02:51:29;6.10;99.90
28530;DHT22;15737;49.760;6.632;2024-01-25T02:53:54;6.00;99.90
28530;DHT22;15737;49.760;6.632;2024-01-25T02:56:20;5.90;99.90
28530;DHT22;15737;49.760;6.632;2024-01-25T02:58:45;5.90;99.90
28530;DHT22;15737;49.760;6.632;2024-01-25T03:01:11;5.80;99.90
28530;DHT22;15737;49.760;6.632;2024-01-25T03:03:36;5.80;99.90
28530;DHT22;15737;49.760;6.632;2024-01-25T03:06:02;5.90;99.90
28530;DHT22;15737;49.760;6.632;2024-01-25T03:08:28;6.00;99.90
28530;DHT22;15737;49.760;6.632;2024-01-25T03:10:53;6.10;99.90
28530;DHT22;15737;49.760;6.632;2024-01-25T03:13:19;6.10;99.90
28530;DHT22;15737;49.760;6.632;2024-01-25T03:15:44;5.90;99.90
28530;DHT22;15737;49.760;6.632;2024-01-25T03:18:10;5.80;99.90
28530;DHT22;15737;49.760;6.632;2024-01-25T03:20:36;5.70;99.90
28530;DHT22;15737;49.760;6.632;2024-01-25T03:23:01;5.70;99.90
28530;DHT22;15737;49.760;6.632;2024-01-25T03:25:28;5.60;99.90
28530;DHT22;15737;49.760;6.632;2024-01-25T03:27:53;5.60;99.90
28530;DHT22;15737;49.760;6.632;2024-01-25T03:30:19;5.50;99.90
28530;DHT22;15737;49.760;6.632;2024-01-25T03:32:46;5.40;99.90
28530;DHT22;15737;49.760;6.632;2024-01-25T03:35:11;5.30;99.90
28530;DHT22;15737;49.760;6.632;2024-01-25T03:37:37;5.40;99.90
28530;DHT22;15737;49.760;6.632;2024-01-25T03:40:05;5.30;99.90
28530;DHT22;15737;49.760;6.632;2024-01-25T03:42:32;5.20;99.90
28530;DHT22;15737;49.760;6.632;2024-01-25T03:44:57;5.20;99.90
28530;DHT22;15737;49.760;6.632;2024-01-25T03:47:23;5.10;99.90
28530;DHT22;15737;49.760;6.632;2024-01-25T03:49:48;5.00;99.90
28530;DHT22;15737;49.760;6.632;2024-01-25T03:52:14;4.90;99.90
28530;DHT22;15737;49.760;6.632;2024-01-25T03:54:39;4.80;99.90
28530;DHT22;15737;49.760;6.632;2024-01-25T03:57:05;4.80;99.90
28530;DHT22;15737;49.760;6.632;2024-01-25T03:59:30;4.80;99.90
28530;DHT22;15737;49.760;6.632;2024-01-25T04:01:56;4.70;99.90
28530;DHT22;15737;49.760;6.632;2024-01-25T04:04:22;4.70;99.90
28530;DHT22;15737;49.760;6.632;2024-01-25T04:06:47;4.70;99.90
28530;DHT22;15737;49.760;6.632;2024-01-25T04:09:13;4.60;99.90
28530;DHT22;15737;49.760;6.632;2024-01-25T04:11:39;4.70;99.90
28530;DHT22;15737;49.760;6.632;2024-01-25T04:14:04;4.70;99.90
28530;DHT22;15737;49.760;6.632;2024-01-25T04:16:32;4.60;99.90
28530;DHT22;15737;49.760;6.632;2024-01-25T04:18:57;4.50;99.90
28530;DHT22;15737;49.760;6.632;2024-01-25T04:21:23;4.50;99.90
28530;DHT22;15737;49.760;6.632;2024-01-25T04:23:48;4.50;99.90
28530;DHT22;15737;49.760;6.632;2024-01-25T04:26:15;4.60;99.90
28530;DHT22;15737;49.760;6.632;2024-01-25T04:28:42;4.60;99.90
28530;DHT22;15737;49.760;6.632;2024-01-25T04:31:07;4.60;99.90
28530;DHT22;15737;49.760;6.632;2024-01-25T04:33:33;4.60;99.90
28530;DHT22;15737;49.760;6.632;2024-01-25T04:35:58;4.70;99.90
28530;DHT22;15737;49.760;6.632;2024-01-25T04:38:24;4.70;99.90
28530;DHT22;15737;49.760;6.632;2024-01-25T04:40:49;4.70;99.90
28530;DHT22;15737;49.760;6.632;2024-01-25T04:43:15;4.80;99.90
28530;DHT22;15737;49.760;6.632;2024-01-25T04:45:40;4.90;99.90
28530;DHT22;15737;49.760;6.632;2024-01-25T04:48:06;4.90;99.90
28530;DHT22;15737;49.760;6.632;2024-01-25T04:50:32;5.00;99.90
28530;DHT22;15737;49.760;6.632;2024-01-25T04:52:57;5.20;99.90
28530;DHT22;15737;49.760;6.632;2024-01-25T04:55:23;5.20;99.90
28530;DHT22;15737;49.760;6.632;2024-01-25T04:57:48;5.10;99.90
28530;DHT22;15737;49.760;6.632;2024-01-25T05:00:19;5.00;99.90
28530;DHT22;15737;49.760;6.632;2024-01-25T05:02:44;4.80;99.90
28530;DHT22;15737;49.760;6.632;2024-01-25T05:05:10;4.70;99.90
28530;DHT22;15737;49.760;6.632;2024-01-25T05:07:35;4.70;99.90
28530;DHT22;15737;49.760;6.632;2024-01-25T05:10:01;4.80;99.90
28530;DHT22;15737;49.760;6.632;2024-01-25T05:12:26;4.70;99.90
28530;DHT22;15737;49.760;6.632;2024-01-25T05:14:52;4.60;99.90
28530;DHT22;15737;49.760;6.632;2024-01-25T05:17:17;4.60;99.90
28530;DHT22;15737;49.760;6.632;2024-01-25T05:19:43;4.60;99.90
28530;DHT22;15737;49.760;6.632;2024-01-25T05:22:08;4.70;99.90
28530;DHT22;15737;49.760;6.632;2024-01-25T05:24:34;4.70;99.90
28530;DHT22;15737;49.760;6.632;2024-01-25T05:26:59;4.60;99.90
28530;DHT22;15737;49.760;6.632;2024-01-25T05:29:25;4.50;99.90
28530;DHT22;15737;49.760;6.632;2024-01-25T05:31:50;4.50;99.90
28530;DHT22;15737;49.760;6.632;2024-01-25T05:34:16;4.50;99.90
28530;DHT22;15737;49.760;6.632;2024-01-25T05:36:41;4.50;99.90
28530;DHT22;15737;49.760;6.632;2024-01-25T05:39:07;4.40;99.90
28530;DHT22;15737;49.760;6.632;2024-01-25T05:41:33;4.40;99.90
28530;DHT22;15737;49.760;6.632;2024-01-25T05:43:59;4.50;99.90
28530;DHT22;15737;49.760;6.632;2024-01-25T05:46:25;4.50;99.90
28530;DHT22;15737;49.760;6.632;2024-01-25T05:48:50;4.50;99.90
28530;DHT22;15737;49.760;6.632;2024-01-25T05:51:16;4.60;99.90
28530;DHT22;15737;49.760;6.632;2024-01-25T05:53:42;4.70;99.90
28530;DHT22;15737;49.760;6.632;2024-01-25T05:56:07;4.70;99.90
28530;DHT22;15737;49.760;6.632;2024-01-25T05:58:33;4.70;99.90
28530;DHT22;15737;49.760;6.632;2024-01-25T06:00:58;4.70;99.90
28530;DHT22;15737;49.760;6.632;2024-01-25T06:03:24;4.60;99.90
28530;DHT22;15737;49.760;6.632;2024-01-25T06:05:49;4.60;99.90
28530;DHT22;15737;49.760;6.632;2024-01-25T06:08:15;4.40;99.90
28530;DHT22;15737;49.760;6.632;2024-01-25T06:10:40;4.50;99.90
28530;DHT22;15737;49.760;6.632;2024-01-25T06:13:06;4.40;99.90
28530;DHT22;15737;49.760;6.632;2024-01-25T06:15:31;4.40;99.90
28530;DHT22;15737;49.760;6.632;2024-01-25T06:18:00;4.30;99.90
28530;DHT22;15737;49.760;6.632;2024-01-25T06:20:26;4.20;99.90
28530;DHT22;15737;49.760;6.632;2024-01-25T06:22:51;4.10;99.90
28530;DHT22;15737;49.760;6.632;2024-01-25T06:25:17;3.90;99.90
28530;DHT22;15737;49.760;6.632;2024-01-25T06:27:42;3.90;99.90
28530;DHT22;15737;49.760;6.632;2024-01-25T06:30:09;3.90;99.90
28530;DHT22;15737;49.760;6.632;2024-01-25T06:32:34;3.80;99.90
28530;DHT22;15737;49.760;6.632;2024-01-25T06:35:00;3.70;99.90
28530;DHT22;15737;49.760;6.632;2024-01-25T06:37:25;3.70;99.90
28530;DHT22;15737;49.760;6.632;2024-01-25T06:39:51;3.70;99.90
28530;DHT22;15737;49.760;6.632;2024-01-25T06:42:16;3.70;99.90
28530;DHT22;15737;49.760;6.632;2024-01-25T06:44:42;3.70;99.90
28530;DHT22;15737;49.760;6.632;2024-01-25T06:47:07;3.60;99.90
28530;DHT22;15737;49.760;6.632;2024-01-25T06:49:33;3.50;99.90
28530;DHT22;15737;49.760;6.632;2024-01-25T06:52:07;3.50;99.90
28530;DHT22;15737;49.760;6.632;2024-01-25T06:54:33;3.50;99.90
28530;DHT22;15737;49.760;6.632;2024-01-25T06:56:58;3.60;99.90
28530;DHT22;15737;49.760;6.632;2024-01-25T06:59:24;3.70;99.90
28530;DHT22;15737;49.760;6.632;2024-01-25T07:01:49;3.70;99.90
28530;DHT22;15737;49.760;6.632;2024-01-25T07:04:15;3.70;99.90
28530;DHT22;15737;49.760;6.632;2024-01-25T07:06:41;3.60;99.90
28530;DHT22;15737;49.760;6.632;2024-01-25T07:09:06;3.60;99.90
28530;DHT22;15737;49.760;6.632;2024-01-25T07:11:32;3.60;99.90
28530;DHT22;15737;49.760;6.632;2024-01-25T07:13:58;3.50;99.90
28530;DHT22;15737;49.760;6.632;2024-01-25T07:16:23;3.50;99.90
28530;DHT22;15737;49.760;6.632;2024-01-25T07:18:49;3.60;99.90
28530;DHT22;15737;49.760;6.632;2024-01-25T07:21:14;3.70;99.90
28530;DHT22;15737;49.760;6.632;2024-01-25T07:23:40;3.80;99.90
28530;DHT22;15737;49.760;6.632;2024-01-25T07:26:05;3.80;99.90
28530;DHT22;15737;49.760;6.632;2024-01-25T07:28:31;3.90;99.90
28530;DHT22;15737;49.760;6.632;2024-01-25T07:30:57;4.00;99.90
28530;DHT22;15737;49.760;6.632;2024-01-25T07:33:22;3.90;99.90
28530;DHT22;15737;49.760;6.632;2024-01-25T07:35:48;3.70;99.90
28530;DHT22;15737;49.760;6.632;2024-01-25T07:38:14;3.70;99.90
28530;DHT22;15737;49.760;6.632;2024-01-25T07:40:40;3.70;99.90
28530;DHT22;15737;49.760;6.632;2024-01-25T07:43:05;3.80;99.90
28530;DHT22;15737;49.760;6.632;2024-01-25T07:45:31;3.80;99.90
28530;DHT22;15737;49.760;6.632;2024-01-25T07:47:57;3.80;99.90
28530;DHT22;15737;49.760;6.632;2024-01-25T07:50:24;3.90;99.90
28530;DHT22;15737;49.760;6.632;2024-01-25T07:52:50;4.10;99.90
28530;DHT22;15737;49.760;6.632;2024-01-25T07:55:16;4.50;99.90
28530;DHT22;15737;49.760;6.632;2024-01-25T07:57:41;4.90;99.90
28530;DHT22;15737;49.760;6.632;2024-01-25T08:00:07;5.50;99.90
28530;DHT22;15737;49.760;6.632;2024-01-25T08:02:34;6.30;99.90
28530;DHT22;15737;49.760;6.632;2024-01-25T08:05:00;7.20;99.90
28530;DHT22;15737;49.760;6.632;2024-01-25T08:07:25;7.90;99.90
28530;DHT22;15737;49.760;6.632;2024-01-25T08:09:51;8.60;99.90
28530;DHT22;15737;49.760;6.632;2024-01-25T08:12:18;9.50;99.90
28530;DHT22;15737;49.760;6.632;2024-01-25T08:14:43;10.60;99.90
28530;DHT22;15737;49.760;6.632;2024-01-25T08:17:09;11.30;99.90
28530;DHT22;15737;49.760;6.632;2024-01-25T08:19:35;11.10;99.90
28530;DHT22;15737;49.760;6.632;2024-01-25T08:22:01;10.90;99.90
28530;DHT22;15737;49.760;6.632;2024-01-25T08:24:27;11.00;99.90
28530;DHT22;15737;49.760;6.632;2024-01-25T08:26:52;11.10;99.90
28530;DHT22;15737;49.760;6.632;2024-01-25T08:29:19;11.50;99.90
28530;DHT22;15737;49.760;6.632;2024-01-25T08:31:44;12.80;99.90
28530;DHT22;15737;49.760;6.632;2024-01-25T08:34:11;14.20;99.90
28530;DHT22;15737;49.760;6.632;2024-01-25T08:36:37;14.20;99.90
28530;DHT22;15737;49.760;6.632;2024-01-25T08:39:02;13.90;99.90
28530;DHT22;15737;49.760;6.632;2024-01-25T08:41:29;13.50;99.90
28530;DHT22;15737;49.760;6.632;2024-01-25T08:43:54;13.80;99.90
28530;DHT22;15737;49.760;6.632;2024-01-25T08:46:20;15.00;99.90
28530;DHT22;15737;49.760;6.632;2024-01-25T08:48:46;16.30;99.90
28530;DHT22;15737;49.760;6.632;2024-01-25T08:51:11;17.40;99.90
28530;DHT22;15737;49.760;6.632;2024-01-25T08:53:37;18.40;99.90
28530;DHT22;15737;49.760;6.632;2024-01-25T08:56:03;19.50;99.90
28530;DHT22;15737;49.760;6.632;2024-01-25T08:58:30;20.20;99.90
28530;DHT22;15737;49.760;6.632;2024-01-25T09:00:55;19.60;99.90
28530;DHT22;15737;49.760;6.632;2024-01-25T09:03:21;18.80;99.90
28530;DHT22;15737;49.760;6.632;2024-01-25T09:05:47;18.90;99.90
28530;DHT22;15737;49.760;6.632;2024-01-25T09:08:13;18.90;99.90
28530;DHT22;15737;49.760;6.632;2024-01-25T09:10:40;18.40;99.90
28530;DHT22;15737;49.760;6.632;2024-01-25T09:13:06;17.60;99.90
28530;DHT22;15737;49.760;6.632;2024-01-25T09:15:31;16.70;99.90
28530;DHT22;15737;49.760;6.632;2024-01-25T09:17:57;16.20;99.90
28530;DHT22;15737;49.760;6.632;2024-01-25T09:20:22;16.20;99.90
28530;DHT22;15737;49.760;6.632;2024-01-25T09:22:48;15.90;99.90
28530;DHT22;15737;49.760;6.632;2024-01-25T09:25:13;15.80;99.90
28530;DHT22;15737;49.760;6.632;2024-01-25T09:27:39;15.70;99.90
28530;DHT22;15737;49.760;6.632;2024-01-25T09:30:05;16.50;99.90
28530;DHT22;15737;49.760;6.632;2024-01-25T09:32:31;18.50;99.90
28530;DHT22;15737;49.760;6.632;2024-01-25T09:34:57;19.20;99.90
28530;DHT22;15737;49.760;6.632;2024-01-25T09:37:22;19.50;99.90
28530;DHT22;15737;49.760;6.632;2024-01-25T09:39:52;19.50;99.90
28530;DHT22;15737;49.760;6.632;2024-01-25T09:42:18;19.50;99.90
28530;DHT22;15737;49.760;6.632;2024-01-25T09:44:44;19.30;99.90
28530;DHT22;15737;49.760;6.632;2024-01-25T09:47:10;19.00;99.90
28530;DHT22;15737;49.760;6.632;2024-01-25T09:49:36;18.40;99.90
28530;DHT22;15737;49.760;6.632;2024-01-25T09:52:04;17.60;99.90
28530;DHT22;15737;49.760;6.632;2024-01-25T09:54:34;17.00;99.90
28530;DHT22;15737;49.760;6.632;2024-01-25T09:57:07;16.70;99.90
28530;DHT22;15737;49.760;6.632;2024-01-25T09:59:33;16.90;99.90
28530;DHT22;15737;49.760;6.632;2024-01-25T10:02:01;17.00;99.90
28530;DHT22;15737;49.760;6.632;2024-01-25T10:04:26;16.90;99.90
28530;DHT22;15737;49.760;6.632;2024-01-25T10:06:55;17.00;99.90
28530;DHT22;15737;49.760;6.632;2024-01-25T10:09:21;17.20;99.90
28530;DHT22;15737;49.760;6.632;2024-01-25T10:11:48;17.30;99.90
28530;DHT22;15737;49.760;6.632;2024-01-25T10:14:13;17.60;99.90
28530;DHT22;15737;49.760;6.632;2024-01-25T10:16:44;18.00;99.90
28530;DHT22;15737;49.760;6.632;2024-01-25T10:19:10;18.40;99.90
28530;DHT22;15737;49.760;6.632;2024-01-25T10:21:37;18.90;99.90
28530;DHT22;15737;49.760;6.632;2024-01-25T10:24:02;19.10;99.90
28530;DHT22;15737;49.760;6.632;2024-01-25T10:26:28;18.70;99.90
28530;DHT22;15737;49.760;6.632;2024-01-25T10:28:54;18.00;99.90
28530;DHT22;15737;49.760;6.632;2024-01-25T10:31:23;17.60;99.90
28530;DHT22;15737;49.760;6.632;2024-01-25T10:33:52;17.60;99.90
28530;DHT22;15737;49.760;6.632;2024-01-25T10:36:21;17.40;99.90
28530;DHT22;15737;49.760;6.632;2024-01-25T10:38:48;17.30;99.90
28530;DHT22;15737;49.760;6.632;2024-01-25T10:41:15;17.20;99.90
28530;DHT22;15737;49.760;6.632;2024-01-25T10:43:41;17.60;99.90
28530;DHT22;15737;49.760;6.632;2024-01-25T10:46:07;17.80;99.90
28530;DHT22;15737;49.760;6.632;2024-01-25T10:48:34;17.90;99.90
28530;DHT22;15737;49.760;6.632;2024-01-25T10:51:01;17.70;99.90
28530;DHT22;15737;49.760;6.632;2024-01-25T10:53:31;17.50;99.90
28530;DHT22;15737;49.760;6.632;2024-01-25T10:55:57;17.00;99.90
28530;DHT22;15737;49.760;6.632;2024-01-25T10:58:23;17.10;99.90
28530;DHT22;15737;49.760;6.632;2024-01-25T11:00:57;16.90;99.90
28530;DHT22;15737;49.760;6.632;2024-01-25T11:03:26;16.30;99.90
28530;DHT22;15737;49.760;6.632;2024-01-25T11:05:54;15.80;99.90
28530;DHT22;15737;49.760;6.632;2024-01-25T11:08:20;15.70;99.90
28530;DHT22;15737;49.760;6.632;2024-01-25T11:10:52;15.80;99.90
28530;DHT22;15737;49.760;6.632;2024-01-25T11:13:24;15.90;99.90
28530;DHT22;15737;49.760;6.632;2024-01-25T11:15:51;15.60;99.90
28530;DHT22;15737;49.760;6.632;2024-01-25T11:18:16;15.80;99.90
28530;DHT22;15737;49.760;6.632;2024-01-25T11:20:42;16.30;99.90
28530;DHT22;15737;49.760;6.632;2024-01-25T11:23:08;16.70;99.90
28530;DHT22;15737;49.760;6.632;2024-01-25T11:25:36;16.50;99.90
28530;DHT22;15737;49.760;6.632;2024-01-25T11:28:03;16.40;99.90
28530;DHT22;15737;49.760;6.632;2024-01-25T11:30:34;16.20;99.90
28530;DHT22;15737;49.760;6.632;2024-01-25T11:33:02;15.90;99.90
28530;DHT22;15737;49.760;6.632;2024-01-25T11:35:29;15.70;99.90
28530;DHT22;15737;49.760;6.632;2024-01-25T11:37:55;15.10;99.90
28530;DHT22;15737;49.760;6.632;2024-01-25T11:40:20;14.60;99.90
28530;DHT22;15737;49.760;6.632;2024-01-25T11:42:50;14.80;99.90
28530;DHT22;15737;49.760;6.632;2024-01-25T11:45:16;14.50;99.90
28530;DHT22;15737;49.760;6.632;2024-01-25T11:47:43;14.30;99.90
28530;DHT22;15737;49.760;6.632;2024-01-25T11:50:11;14.10;99.90
28530;DHT22;15737;49.760;6.632;2024-01-25T11:52:37;14.00;99.90
28530;DHT22;15737;49.760;6.632;2024-01-25T11:55:05;13.80;99.90
28530;DHT22;15737;49.760;6.632;2024-01-25T11:57:34;13.70;99.90
28530;DHT22;15737;49.760;6.632;2024-01-25T12:00:02;13.60;99.90
28530;DHT22;15737;49.760;6.632;2024-01-25T12:04:58;13.40;99.90
28530;DHT22;15737;49.760;6.632;2024-01-25T12:07:24;13.50;99.90
28530;DHT22;15737;49.760;6.632;2024-01-25T12:10:01;13.70;99.90
28530;DHT22;15737;49.760;6.632;2024-01-25T12:12:27;14.00;99.90
28530;DHT22;15737;49.760;6.632;2024-01-25T12:15:00;14.40;99.90
28530;DHT22;15737;49.760;6.632;2024-01-25T12:17:27;14.40;99.90
28530;DHT22;15737;49.760;6.632;2024-01-25T12:19:57;14.30;99.90
28530;DHT22;15737;49.760;6.632;2024-01-25T12:22:23;13.90;99.90
28530;DHT22;15737;49.760;6.632;2024-01-25T12:24:52;13.40;99.90
28530;DHT22;15737;49.760;6.632;2024-01-25T12:27:20;13.10;99.90
28530;DHT22;15737;49.760;6.632;2024-01-25T12:29:46;12.90;99.90
28530;DHT22;15737;49.760;6.632;2024-01-25T12:32:12;12.90;99.90
28530;DHT22;15737;49.760;6.632;2024-01-25T12:34:40;12.80;99.90
28530;DHT22;15737;49.760;6.632;2024-01-25T12:37:07;12.60;99.90
28530;DHT22;15737;49.760;6.632;2024-01-25T12:39:33;12.50;99.90
28530;DHT22;15737;49.760;6.632;2024-01-25T12:41:59;12.50;99.90
28530;DHT22;15737;49.760;6.632;2024-01-25T12:44:24;12.60;99.90
28530;DHT22;15737;49.760;6.632;2024-01-25T12:46:50;12.80;99.90
28530;DHT22;15737;49.760;6.632;2024-01-25T12:49:16;12.80;99.90
28530;DHT22;15737;49.760;6.632;2024-01-25T12:51:42;12.80;99.90
28530;DHT22;15737;49.760;6.632;2024-01-25T12:54:07;12.70;99.90
28530;DHT22;15737;49.760;6.632;2024-01-25T12:56:33;12.70;99.90
28530;DHT22;15737;49.760;6.632;2024-01-25T12:58:58;12.80;99.90
28530;DHT22;15737;49.760;6.632;2024-01-25T13:01:24;12.80;99.90
28530;DHT22;15737;49.760;6.632;2024-01-25T13:03:49;12.80;99.90
28530;DHT22;15737;49.760;6.632;2024-01-25T13:06:15;12.60;99.90
28530;DHT22;15737;49.760;6.632;2024-01-25T13:08:41;12.50;99.90
28530;DHT22;15737;49.760;6.632;2024-01-25T13:11:06;12.30;99.90
28530;DHT22;15737;49.760;6.632;2024-01-25T13:13:32;11.90;99.90
28530;DHT22;15737;49.760;6.632;2024-01-25T13:15:57;11.70;99.90
28530;DHT22;15737;49.760;6.632;2024-01-25T13:18:23;11.30;99.90
28530;DHT22;15737;49.760;6.632;2024-01-25T13:20:48;10.80;99.90
28530;DHT22;15737;49.760;6.632;2024-01-25T13:23:14;10.50;99.90
28530;DHT22;15737;49.760;6.632;2024-01-25T13:25:40;10.20;99.90
28530;DHT22;15737;49.760;6.632;2024-01-25T13:28:05;9.80;99.90
28530;DHT22;15737;49.760;6.632;2024-01-25T13:30:31;9.60;99.90
28530;DHT22;15737;49.760;6.632;2024-01-25T13:32:56;9.50;99.90
28530;DHT22;15737;49.760;6.632;2024-01-25T13:37:51;9.30;99.90
28530;DHT22;15737;49.760;6.632;2024-01-25T13:40:17;9.30;99.90
28530;DHT22;15737;49.760;6.632;2024-01-25T13:42:42;9.40;99.90
28530;DHT22;15737;49.760;6.632;2024-01-25T13:45:09;9.40;99.90
28530;DHT22;15737;49.760;6.632;2024-01-25T13:47:35;9.50;99.90
28530;DHT22;15737;49.760;6.632;2024-01-25T13:50:00;9.40;99.90
28530;DHT22;15737;49.760;6.632;2024-01-25T13:52:26;9.30;99.90
28530;DHT22;15737;49.760;6.632;2024-01-25T13:54:51;9.30;99.90
28530;DHT22;15737;49.760;6.632;2024-01-25T13:57:17;9.40;99.90
28530;DHT22;15737;49.760;6.632;2024-01-25T13:59:42;9.30;99.90
28530;DHT22;15737;49.760;6.632;2024-01-25T14:02:08;9.30;99.90
28530;DHT22;15737;49.760;6.632;2024-01-25T14:04:34;9.10;99.90
28530;DHT22;15737;49.760;6.632;2024-01-25T14:06:59;9.10;99.90
28530;DHT22;15737;49.760;6.632;2024-01-25T14:09:28;9.00;99.90
28530;DHT22;15737;49.760;6.632;2024-01-25T14:11:54;9.00;99.90
28530;DHT22;15737;49.760;6.632;2024-01-25T14:14:20;9.00;99.90
28530;DHT22;15737;49.760;6.632;2024-01-25T14:16:45;9.00;99.90
28530;DHT22;15737;49.760;6.632;2024-01-25T14:19:11;9.00;99.90
28530;DHT22;15737;49.760;6.632;2024-01-25T14:21:37;9.00;99.90
28530;DHT22;15737;49.760;6.632;2024-01-25T14:24:04;9.00;99.90
28530;DHT22;15737;49.760;6.632;2024-01-25T14:26:29;8.90;99.90
28530;DHT22;15737;49.760;6.632;2024-01-25T14:28:55;8.90;99.90
28530;DHT22;15737;49.760;6.632;2024-01-25T14:31:20;8.80;99.90
28530;DHT22;15737;49.760;6.632;2024-01-25T14:33:46;8.70;99.90
28530;DHT22;15737;49.760;6.632;2024-01-25T14:36:11;8.70;99.90
28530;DHT22;15737;49.760;6.632;2024-01-25T14:38:39;8.80;99.90
28530;DHT22;15737;49.760;6.632;2024-01-25T14:41:08;8.70;99.90
28530;DHT22;15737;49.760;6.632;2024-01-25T14:43:34;8.70;99.90
28530;DHT22;15737;49.760;6.632;2024-01-25T14:45:59;8.70;99.90
28530;DHT22;15737;49.760;6.632;2024-01-25T14:48:25;8.60;99.90
28530;DHT22;15737;49.760;6.632;2024-01-25T14:51:05;8.60;99.90
28530;DHT22;15737;49.760;6.632;2024-01-25T14:53:31;8.70;99.90
28530;DHT22;15737;49.760;6.632;2024-01-25T14:55:56;8.60;99.90
28530;DHT22;15737;49.760;6.632;2024-01-25T14:58:22;8.60;99.90
28530;DHT22;15737;49.760;6.632;2024-01-25T15:00:49;8.60;99.90
28530;DHT22;15737;49.760;6.632;2024-01-25T15:03:15;8.70;99.90
28530;DHT22;15737;49.760;6.632;2024-01-25T15:05:40;8.70;99.90
28530;DHT22;15737;49.760;6.632;2024-01-25T15:08:06;8.70;99.90
28530;DHT22;15737;49.760;6.632;2024-01-25T15:10:31;8.70;99.90
28530;DHT22;15737;49.760;6.632;2024-01-25T15:12:57;8.60;99.90
28530;DHT22;15737;49.760;6.632;2024-01-25T15:15:25;8.60;99.90
28530;DHT22;15737;49.760;6.632;2024-01-25T15:17:53;8.60;99.90
28530;DHT22;15737;49.760;6.632;2024-01-25T15:20:30;8.60;99.90
28530;DHT22;15737;49.760;6.632;2024-01-25T15:22:57;8.60;99.90
28530;DHT22;15737;49.760;6.632;2024-01-25T15:25:27;8.60;99.90
28530;DHT22;15737;49.760;6.632;2024-01-25T15:27:52;8.60;99.90
28530;DHT22;15737;49.760;6.632;2024-01-25T15:30:18;8.70;99.90
28530;DHT22;15737;49.760;6.632;2024-01-25T15:32:58;8.60;99.90
28530;DHT22;15737;49.760;6.632;2024-01-25T15:35:24;8.60;99.90
28530;DHT22;15737;49.760;6.632;2024-01-25T15:37:50;8.60;99.90
28530;DHT22;15737;49.760;6.632;2024-01-25T15:40:17;8.50;99.90